createdAt,value
2022-11-12T00:03:02.486Z,15.79
2022-11-12T00:06:26.022Z,15.72
2022-11-12T00:09:49.179Z,15.68
2022-11-12T00:13:13.809Z,15.65
2022-11-12T00:16:37.557Z,15.68
2022-11-12T00:20:01.894Z,15.61
2022-11-12T00:23:25.262Z,15.61
2022-11-12T00:26:48.841Z,15.51
2022-11-12T00:30:13.769Z,15.57
2022-11-12T00:33:42.351Z,15.52
2022-11-12T00:37:07.409Z,15.50
2022-11-12T00:40:31.210Z,15.47
2022-11-12T00:43:54.785Z,15.39
2022-11-12T00:47:18.749Z,15.36
2022-11-12T00:50:42.121Z,15.34
2022-11-12T00:54:07.337Z,15.39
2022-11-12T00:57:31.497Z,15.31
2022-11-12T01:00:55.159Z,15.26
2022-11-12T01:04:18.970Z,15.26
2022-11-12T01:07:42.653Z,15.23
2022-11-12T01:11:13.928Z,15.23
2022-11-12T01:14:39.830Z,15.26
2022-11-12T01:18:21.987Z,15.22
2022-11-12T01:21:46.000Z,15.20
2022-11-12T01:25:11.448Z,15.27
2022-11-12T01:28:37.081Z,15.25
2022-11-12T01:32:00.700Z,15.33
2022-11-12T01:35:24.271Z,15.29
2022-11-12T01:38:49.554Z,15.30
2022-11-12T01:42:14.038Z,15.34
2022-11-12T01:45:40.353Z,15.29
2022-11-12T01:49:06.924Z,15.28
2022-11-12T01:52:35.820Z,15.30
2022-11-12T01:55:59.782Z,15.34
2022-11-12T01:59:29.294Z,15.33
2022-11-12T02:02:59.302Z,15.30
2022-11-12T02:06:24.490Z,15.31
2022-11-12T02:09:48.325Z,15.29
2022-11-12T02:13:30.340Z,15.33
2022-11-12T02:16:53.752Z,15.35
2022-11-12T02:20:21.058Z,15.38
2022-11-12T02:23:46.473Z,15.37
2022-11-12T02:27:11.743Z,15.37
2022-11-12T02:30:37.046Z,15.36
2022-11-12T02:34:02.665Z,15.35
2022-11-12T02:37:26.584Z,15.39
2022-11-12T02:40:52.556Z,15.36
2022-11-12T02:44:16.593Z,15.42
2022-11-12T02:47:40.146Z,15.42
2022-11-12T02:51:04.218Z,15.47
2022-11-12T02:54:27.997Z,15.44
2022-11-12T02:57:52.958Z,15.43
2022-11-12T03:01:16.078Z,15.45
2022-11-12T03:04:39.266Z,15.45
2022-11-12T03:08:05.302Z,15.48
2022-11-12T03:11:28.733Z,15.46
2022-11-12T03:14:54.130Z,15.48
2022-11-12T03:18:26.709Z,15.51
2022-11-12T03:21:50.745Z,15.51
2022-11-12T03:25:18.115Z,15.49
2022-11-12T03:28:42.035Z,15.50
2022-11-12T03:32:07.408Z,15.52
2022-11-12T03:35:30.834Z,15.49
2022-11-12T03:38:54.583Z,15.48
2022-11-12T03:42:17.979Z,15.50
2022-11-12T03:45:42.247Z,15.48
2022-11-12T03:49:06.978Z,15.48
2022-11-12T03:52:30.687Z,15.39
2022-11-12T03:55:54.032Z,15.38
2022-11-12T03:59:17.741Z,15.36
2022-11-12T04:02:40.869Z,15.29
2022-11-12T04:06:23.543Z,15.34
2022-11-12T04:09:46.966Z,15.31
2022-11-12T04:13:29.926Z,15.30
2022-11-12T04:17:16.241Z,15.30
2022-11-12T04:21:02.132Z,15.31
2022-11-12T04:24:46.804Z,15.27
2022-11-12T04:28:11.129Z,15.23
2022-11-12T04:31:33.509Z,15.23
2022-11-12T04:34:57.629Z,15.21
2022-11-12T04:38:23.043Z,15.15
2022-11-12T04:42:05.415Z,15.19
2022-11-12T04:45:29.089Z,15.17
2022-11-12T04:48:52.326Z,15.15
2022-11-12T04:52:16.493Z,15.14
2022-11-12T04:55:40.037Z,15.10
2022-11-12T04:59:04.834Z,15.11
2022-11-12T05:02:28.679Z,15.07
2022-11-12T05:05:52.245Z,15.08
2022-11-12T05:09:16.745Z,15.06
2022-11-12T05:12:40.368Z,15.07
2022-11-12T05:16:05.752Z,14.99
2022-11-12T05:19:29.396Z,15.07
2022-11-12T05:23:06.713Z,15.03
2022-11-12T05:26:31.081Z,15.02
2022-11-12T05:29:55.070Z,14.97
2022-11-12T05:33:23.463Z,14.97
2022-11-12T05:36:47.589Z,14.91
2022-11-12T05:40:13.147Z,14.89
2022-11-12T05:43:36.821Z,14.92
2022-11-12T05:47:00.473Z,14.92
2022-11-12T05:50:28.226Z,14.88
2022-11-12T05:53:58.265Z,14.87
2022-11-12T05:57:21.953Z,14.90
2022-11-12T06:00:45.460Z,14.87
2022-11-12T06:04:09.458Z,14.81
2022-11-12T06:07:34.157Z,14.84
2022-11-12T06:10:57.996Z,14.83
2022-11-12T06:14:20.999Z,14.75
2022-11-12T06:17:44.694Z,14.79
2022-11-12T06:21:23.627Z,14.72
2022-11-12T06:24:48.636Z,14.74
2022-11-12T06:28:17.953Z,14.73
2022-11-12T06:31:42.215Z,14.73
2022-11-12T06:35:05.805Z,14.74
2022-11-12T06:38:29.716Z,14.75
2022-11-12T06:41:54.899Z,14.77
2022-11-12T06:45:18.678Z,14.70
2022-11-12T06:48:43.346Z,14.71
2022-11-12T06:52:07.070Z,14.70
2022-11-12T06:55:30.439Z,14.70
2022-11-12T06:58:55.546Z,14.67
2022-11-12T07:02:18.550Z,14.65
2022-11-12T07:05:42.908Z,14.65
2022-11-12T07:09:07.638Z,14.64
2022-11-12T07:12:31.233Z,14.58
2022-11-12T07:15:58.919Z,14.58
2022-11-12T07:19:22.819Z,14.60
2022-11-12T07:22:46.068Z,14.55
2022-11-12T07:26:16.749Z,14.60
2022-11-12T07:29:48.258Z,14.59
2022-11-12T07:33:16.789Z,14.60
2022-11-12T07:36:39.775Z,14.59
2022-11-12T07:40:04.699Z,14.51
2022-11-12T07:43:27.709Z,14.60
2022-11-12T07:46:51.545Z,14.63
2022-11-12T07:50:16.501Z,14.64
2022-11-12T07:53:40.078Z,14.61
2022-11-12T07:57:03.092Z,14.64
2022-11-12T08:00:26.594Z,14.64
2022-11-12T08:03:49.894Z,14.55
2022-11-12T08:07:16.081Z,14.48
2022-11-12T08:10:39.770Z,14.59
2022-11-12T08:14:04.263Z,14.51
2022-11-12T08:17:27.479Z,14.56
2022-11-12T08:20:51.619Z,14.61
2022-11-12T08:24:16.151Z,14.54
2022-11-12T08:27:40.430Z,14.62
2022-11-12T08:31:06.912Z,14.55
2022-11-12T08:34:31.333Z,14.56
2022-11-12T08:37:59.267Z,14.55
2022-11-12T08:41:24.529Z,14.62
2022-11-12T08:44:47.953Z,14.65
2022-11-12T08:48:14.993Z,14.64
2022-11-12T08:51:38.194Z,14.66
2022-11-12T08:55:02.366Z,14.61
2022-11-12T08:58:28.321Z,14.66
2022-11-12T09:01:52.365Z,14.66
2022-11-12T09:05:16.313Z,14.70
2022-11-12T09:08:40.080Z,14.71
2022-11-12T09:12:12.381Z,14.71
2022-11-12T09:15:40.356Z,14.73
2022-11-12T09:19:03.228Z,14.73
2022-11-12T09:22:27.972Z,14.76
2022-11-12T09:25:50.777Z,14.75
2022-11-12T09:29:14.258Z,14.78
2022-11-12T09:32:39.130Z,14.78
2022-11-12T09:36:04.537Z,14.81
2022-11-12T09:39:27.560Z,14.80
2022-11-12T09:42:54.049Z,14.86
2022-11-12T09:46:29.823Z,14.83
2022-11-12T09:50:04.309Z,14.91
2022-11-12T09:53:34.185Z,14.88
2022-11-12T09:56:58.037Z,14.90
2022-11-12T10:00:24.268Z,14.90
2022-11-12T10:03:58.211Z,14.87
2022-11-12T10:07:37.702Z,14.89
2022-11-12T10:11:11.857Z,14.97
2022-11-12T10:15:22.385Z,14.93
2022-11-12T10:19:02.939Z,15.00
2022-11-12T10:22:41.064Z,14.97
2022-11-12T10:26:14.041Z,15.03
2022-11-12T10:29:41.324Z,15.06
2022-11-12T10:33:05.734Z,15.05
2022-11-12T10:36:33.520Z,15.05
2022-11-12T10:39:58.674Z,15.06
2022-11-12T10:43:26.194Z,15.08
2022-11-12T10:46:50.678Z,15.14
2022-11-12T10:50:21.830Z,15.11
2022-11-12T10:53:45.357Z,15.21
2022-11-12T10:57:23.480Z,15.24
2022-11-12T11:01:03.992Z,15.17
2022-11-12T11:04:34.812Z,15.23
2022-11-12T11:07:59.377Z,15.25
2022-11-12T11:11:27.253Z,15.28
2022-11-12T11:15:08.932Z,15.26
2022-11-12T11:18:36.166Z,15.25
2022-11-12T11:22:15.117Z,15.24
2022-11-12T11:25:38.979Z,15.23
2022-11-12T11:29:21.326Z,15.27
2022-11-12T11:33:24.030Z,15.34
2022-11-12T11:36:59.073Z,15.29
2022-11-12T11:40:28.193Z,15.30
2022-11-12T11:44:03.265Z,15.27
2022-11-12T11:47:57.671Z,15.28
2022-11-12T11:51:39.875Z,15.26
2022-11-12T11:55:18.420Z,15.20
2022-11-12T11:59:00.440Z,15.19
2022-11-12T12:02:42.958Z,15.19
2022-11-12T12:06:21.342Z,15.17
2022-11-12T12:09:52.670Z,15.09
2022-11-12T12:13:25.752Z,15.08
2022-11-12T12:17:00.801Z,15.10
2022-11-12T12:20:30.477Z,15.13
2022-11-12T12:23:56.619Z,15.10
2022-11-12T12:27:25.431Z,15.13
2022-11-12T12:30:51.887Z,15.08
2022-11-12T12:34:23.178Z,15.11
2022-11-12T12:37:53.649Z,15.13
2022-11-12T12:41:27.854Z,15.15
2022-11-12T12:45:05.594Z,15.15
2022-11-12T12:48:31.681Z,15.08
2022-11-12T12:51:56.051Z,15.11
2022-11-12T12:55:38.588Z,15.10
2022-11-12T12:59:03.833Z,15.11
2022-11-12T13:02:28.798Z,15.01
2022-11-12T13:06:08.313Z,15.02
2022-11-12T13:09:33.306Z,15.08
2022-11-12T13:13:06.591Z,15.14
2022-11-12T13:16:59.620Z,15.09
2022-11-12T13:20:43.158Z,15.04
2022-11-12T13:24:12.152Z,14.97
2022-11-12T13:28:06.935Z,14.95
2022-11-12T13:31:34.101Z,14.91
2022-11-12T13:35:29.242Z,14.90
2022-11-12T13:38:59.764Z,14.88
2022-11-12T13:42:41.778Z,14.86
2022-11-12T13:46:27.724Z,14.83
2022-11-12T13:49:50.992Z,14.75
2022-11-12T13:53:24.552Z,14.69
2022-11-12T13:56:49.109Z,14.66
2022-11-12T14:00:29.037Z,14.63
2022-11-12T14:03:53.603Z,14.57
2022-11-12T14:07:33.497Z,14.50
2022-11-12T14:11:10.876Z,14.51
2022-11-12T14:15:03.364Z,14.51
2022-11-12T14:18:33.943Z,14.44
2022-11-12T14:22:02.892Z,14.35
2022-11-12T14:25:28.613Z,14.30
2022-11-12T14:28:58.161Z,14.29
2022-11-12T14:32:22.540Z,14.25
2022-11-12T14:35:46.613Z,14.23
2022-11-12T14:39:12.506Z,14.14
2022-11-12T14:42:36.930Z,14.12
2022-11-12T14:46:01.268Z,14.11
2022-11-12T14:49:37.321Z,14.01
2022-11-12T14:53:07.162Z,14.00
2022-11-12T14:56:37.208Z,13.89
2022-11-12T15:00:00.356Z,13.82
2022-11-12T15:03:31.602Z,13.84
2022-11-12T15:06:58.498Z,13.72
2022-11-12T15:10:35.806Z,13.79
2022-11-12T15:14:03.846Z,13.68
2022-11-12T15:17:33.990Z,13.65
2022-11-12T15:21:14.503Z,13.63
2022-11-12T15:24:43.896Z,13.64
2022-11-12T15:28:15.325Z,13.55
2022-11-12T15:31:46.478Z,13.58
2022-11-12T15:35:37.033Z,13.51
2022-11-12T15:39:00.434Z,13.40
2022-11-12T15:42:29.251Z,13.44
2022-11-12T15:45:54.982Z,13.43
2022-11-12T15:49:18.402Z,13.42
2022-11-12T15:52:42.613Z,13.29
2022-11-12T15:56:07.503Z,13.27
2022-11-12T15:59:32.592Z,13.21
2022-11-12T16:02:59.331Z,13.20
2022-11-12T16:06:22.893Z,13.15
2022-11-12T16:09:46.351Z,13.10
2022-11-12T16:13:16.805Z,13.05
2022-11-12T16:16:41.202Z,13.07
2022-11-12T16:20:13.630Z,13.08
2022-11-12T16:23:37.440Z,13.04
2022-11-12T16:27:02.488Z,12.94
2022-11-12T16:30:31.621Z,12.95
2022-11-12T16:33:56.974Z,12.93
2022-11-12T16:37:20.456Z,12.92
2022-11-12T16:40:46.498Z,12.86
2022-11-12T16:44:09.840Z,12.82
2022-11-12T16:47:33.565Z,12.82
2022-11-12T16:51:01.442Z,12.80
2022-11-12T16:54:25.211Z,12.75
2022-11-12T16:57:48.854Z,12.69
2022-11-12T17:01:16.672Z,12.66
2022-11-12T17:04:39.993Z,12.65
2022-11-12T17:08:04.940Z,12.57
2022-11-12T17:11:28.037Z,12.46
2022-11-12T17:14:52.229Z,12.39
2022-11-12T17:18:16.447Z,12.46
2022-11-12T17:21:40.553Z,12.44
2022-11-12T17:25:05.502Z,12.46
2022-11-12T17:28:30.862Z,12.43
2022-11-12T17:31:54.173Z,12.44
2022-11-12T17:35:18.250Z,12.45
2022-11-12T17:38:41.829Z,12.40
2022-11-12T17:42:07.579Z,12.41
2022-11-12T17:45:30.991Z,12.40
2022-11-12T17:48:55.815Z,12.36
2022-11-12T17:52:18.843Z,12.32
2022-11-12T17:55:42.652Z,12.28
2022-11-12T17:59:07.265Z,12.27
2022-11-12T18:02:31.167Z,12.19
2022-11-12T18:06:01.014Z,12.14
2022-11-12T18:09:24.894Z,12.11
2022-11-12T18:12:48.603Z,12.06
2022-11-12T18:16:19.225Z,12.02
2022-11-12T18:19:42.368Z,11.98
2022-11-12T18:23:06.109Z,11.91
2022-11-12T18:26:29.327Z,11.80
2022-11-12T18:29:53.209Z,11.79
2022-11-12T18:33:17.767Z,11.82
2022-11-12T18:36:41.385Z,11.83
2022-11-12T18:40:05.132Z,11.88
2022-11-12T18:43:29.532Z,11.83
2022-11-12T18:46:53.615Z,11.84
2022-11-12T18:50:19.424Z,11.81
2022-11-12T18:53:43.938Z,11.77
2022-11-12T18:57:07.800Z,11.75
2022-11-12T19:00:30.871Z,11.71
2022-11-12T19:03:56.884Z,11.74
2022-11-12T19:07:21.520Z,11.74
2022-11-12T19:10:45.479Z,11.75
2022-11-12T19:14:08.873Z,11.69
2022-11-12T19:17:32.455Z,11.71
2022-11-12T19:21:02.833Z,11.67
2022-11-12T19:24:27.884Z,11.63
2022-11-12T19:27:51.251Z,11.57
2022-11-12T19:31:17.184Z,11.59
2022-11-12T19:34:40.327Z,11.63
2022-11-12T19:38:03.912Z,11.57
2022-11-12T19:41:28.489Z,11.55
2022-11-12T19:44:52.665Z,11.53
2022-11-12T19:48:16.101Z,11.53
2022-11-12T19:51:40.013Z,11.46
2022-11-12T19:55:03.598Z,11.45
2022-11-12T19:58:28.873Z,11.36
2022-11-12T20:01:52.788Z,11.20
2022-11-12T20:05:17.098Z,11.29
2022-11-12T20:08:40.674Z,11.24
2022-11-12T20:12:05.329Z,11.30
2022-11-12T20:15:30.847Z,11.28
2022-11-12T20:18:55.643Z,11.19
2022-11-12T20:22:19.236Z,11.29
2022-11-12T20:25:43.085Z,11.24
2022-11-12T20:29:06.288Z,11.15
2022-11-12T20:32:31.382Z,11.11
2022-11-12T20:35:54.772Z,11.02
2022-11-12T20:39:18.984Z,11.06
2022-11-12T20:42:42.946Z,11.12
2022-11-12T20:46:07.408Z,11.12
2022-11-12T20:49:32.264Z,11.09
2022-11-12T20:52:56.342Z,11.10
2022-11-12T20:56:22.716Z,11.01
2022-11-12T20:59:46.509Z,11.08
2022-11-12T21:03:16.798Z,10.95
2022-11-12T21:06:42.237Z,10.92
2022-11-12T21:10:06.370Z,10.84
2022-11-12T21:13:30.749Z,10.78
2022-11-12T21:16:53.804Z,10.82
2022-11-12T21:20:17.821Z,10.72
2022-11-12T21:23:44.864Z,10.67
2022-11-12T21:27:08.713Z,10.66
2022-11-12T21:30:32.445Z,10.51
2022-11-12T21:34:00.255Z,10.41
2022-11-12T21:37:23.458Z,10.54
2022-11-12T21:40:48.543Z,10.53
2022-11-12T21:44:14.374Z,10.45
2022-11-12T21:47:38.863Z,10.44
2022-11-12T21:51:04.849Z,10.43
2022-11-12T21:54:28.593Z,10.32
2022-11-12T21:57:53.077Z,10.36
2022-11-12T22:01:20.318Z,10.39
2022-11-12T22:04:43.796Z,10.33
2022-11-12T22:08:07.605Z,10.26
2022-11-12T22:11:30.806Z,10.28
2022-11-12T22:14:56.053Z,10.26
2022-11-12T22:18:19.846Z,10.17
2022-11-12T22:21:43.862Z,10.06
2022-11-12T22:25:08.577Z,9.95
2022-11-12T22:28:34.354Z,10.07
2022-11-12T22:31:58.930Z,10.01
2022-11-12T22:35:22.625Z,10.03
2022-11-12T22:38:47.798Z,9.95
2022-11-12T22:42:13.137Z,9.93
2022-11-12T22:45:36.937Z,9.83
2022-11-12T22:49:02.661Z,9.95
2022-11-12T22:52:25.880Z,9.94
2022-11-12T22:55:49.828Z,9.85
2022-11-12T22:59:14.010Z,9.82
2022-11-12T23:02:40.316Z,9.78
2022-11-12T23:06:10.545Z,9.75
2022-11-12T23:09:34.501Z,9.71
2022-11-12T23:12:58.124Z,9.66
2022-11-12T23:16:25.904Z,9.63
2022-11-12T23:19:49.213Z,9.63
2022-11-12T23:23:16.206Z,9.57
2022-11-12T23:26:39.498Z,9.34
2022-11-12T23:30:03.702Z,9.40
2022-11-12T23:33:26.866Z,9.38
2022-11-12T23:36:50.730Z,9.36
2022-11-12T23:40:17.478Z,9.52
2022-11-12T23:43:41.909Z,9.62
2022-11-12T23:47:05.600Z,9.67
2022-11-12T23:50:29.557Z,9.65
2022-11-12T23:53:52.602Z,9.63
2022-11-12T23:57:20.044Z,9.64
